createdAt,value
2018-09-22T00:01:46.942Z,11.40
2018-09-22T00:04:15.527Z,11.40
2018-09-22T00:06:44.095Z,11.50
2018-09-22T00:09:12.816Z,11.40
2018-09-22T00:11:41.351Z,11.40
2018-09-22T00:14:24.280Z,11.40
2018-09-22T00:16:52.811Z,11.40
2018-09-22T00:19:21.486Z,11.30
2018-09-22T00:21:50.411Z,11.30
2018-09-22T00:24:19.051Z,11.30
2018-09-22T00:26:47.682Z,11.30
2018-09-22T00:29:16.138Z,11.20
2018-09-22T00:31:44.638Z,11.20
2018-09-22T00:34:13.115Z,11.20
2018-09-22T00:36:41.602Z,11.20
2018-09-22T00:39:11.087Z,11.20
2018-09-22T00:41:39.820Z,11.20
2018-09-22T00:44:08.317Z,11.20
2018-09-22T00:46:36.800Z,11.20
2018-09-22T00:49:05.286Z,11.20
2018-09-22T00:51:33.983Z,11.20
2018-09-22T00:54:02.454Z,11.20
2018-09-22T00:56:30.944Z,11.20
2018-09-22T00:58:59.430Z,11.30
2018-09-22T01:01:27.919Z,11.30
2018-09-22T01:03:56.729Z,11.30
2018-09-22T01:06:25.227Z,11.30
2018-09-22T01:08:53.687Z,11.20
2018-09-22T01:11:22.227Z,11.20
2018-09-22T01:13:50.679Z,11.20
2018-09-22T01:16:19.179Z,11.20
2018-09-22T01:18:48.727Z,11.20
2018-09-22T01:21:17.201Z,11.10
2018-09-22T01:23:45.671Z,11.10
2018-09-22T01:26:14.165Z,11.10
2018-09-22T01:28:42.643Z,11.10
2018-09-22T01:31:11.104Z,11.20
2018-09-22T01:33:39.599Z,11.20
2018-09-22T01:36:08.041Z,11.10
2018-09-22T01:38:36.561Z,11.10
2018-09-22T01:41:05.067Z,11.10
2018-09-22T01:43:33.563Z,11.10
2018-09-22T01:46:02.051Z,11.10
2018-09-22T01:48:30.570Z,11.10
2018-09-22T01:50:59.237Z,11.00
2018-09-22T01:53:27.714Z,11.10
2018-09-22T01:55:56.197Z,11.00
2018-09-22T01:58:25.346Z,11.00
2018-09-22T02:00:53.841Z,11.00
2018-09-22T02:03:22.338Z,11.00
2018-09-22T02:06:05.642Z,11.00
2018-09-22T02:08:34.131Z,11.00
2018-09-22T02:11:02.950Z,10.90
2018-09-22T02:13:31.435Z,10.90
2018-09-22T02:16:00.666Z,10.90
2018-09-22T02:18:29.147Z,10.90
2018-09-22T02:20:57.695Z,10.90
2018-09-22T02:23:26.838Z,10.90
2018-09-22T02:25:55.646Z,10.90
2018-09-22T02:28:24.110Z,10.90
2018-09-22T02:30:52.790Z,10.90
2018-09-22T02:33:21.275Z,10.80
2018-09-22T02:35:49.759Z,10.80
2018-09-22T02:38:18.253Z,10.80
2018-09-22T02:40:46.740Z,10.80
2018-09-22T02:43:15.191Z,10.80
2018-09-22T02:45:44.691Z,10.80
2018-09-22T02:48:13.195Z,10.80
2018-09-22T02:50:41.706Z,10.80
2018-09-22T02:53:10.167Z,10.80
2018-09-22T02:55:38.666Z,10.80
2018-09-22T02:58:07.162Z,10.70
2018-09-22T03:00:35.698Z,10.70
2018-09-22T03:03:04.214Z,10.70
2018-09-22T03:05:32.706Z,10.70
2018-09-22T03:08:01.189Z,10.70
2018-09-22T03:10:29.747Z,10.70
2018-09-22T03:12:58.206Z,10.80
2018-09-22T03:15:26.745Z,10.80
2018-09-22T03:17:55.370Z,10.80
2018-09-22T03:20:23.865Z,10.80
2018-09-22T03:22:52.563Z,10.80
2018-09-22T03:25:21.043Z,10.70
2018-09-22T03:27:50.147Z,10.70
2018-09-22T03:30:18.670Z,10.80
2018-09-22T03:32:47.150Z,10.70
2018-09-22T03:35:15.659Z,10.80
2018-09-22T03:37:44.171Z,10.80
2018-09-22T03:40:12.991Z,10.80
2018-09-22T03:42:41.494Z,10.80
2018-09-22T03:45:09.963Z,10.80
2018-09-22T03:47:38.455Z,10.80
2018-09-22T03:50:06.960Z,10.80
2018-09-22T03:52:35.439Z,10.80
2018-09-22T03:55:04.330Z,10.80
2018-09-22T03:57:33.018Z,10.80
2018-09-22T04:00:01.469Z,10.80
2018-09-22T04:02:29.999Z,10.80
2018-09-22T04:04:58.470Z,10.80
2018-09-22T04:07:26.975Z,10.80
2018-09-22T04:09:55.439Z,10.80
2018-09-22T04:12:23.942Z,10.80
2018-09-22T04:14:53.442Z,10.80
2018-09-22T04:17:22.302Z,10.70
2018-09-22T04:19:50.755Z,10.80
2018-09-22T04:22:19.228Z,10.80
2018-09-22T04:24:47.725Z,10.80
2018-09-22T04:27:16.200Z,10.80
2018-09-22T04:29:44.941Z,10.80
2018-09-22T04:32:13.398Z,10.80
2018-09-22T04:34:41.910Z,10.80
2018-09-22T04:37:10.380Z,10.70
2018-09-22T04:39:38.854Z,10.80
2018-09-22T04:42:07.774Z,10.80
2018-09-22T04:44:36.258Z,10.80
2018-09-22T04:47:04.727Z,10.80
2018-09-22T04:49:33.227Z,10.80
2018-09-22T04:52:01.686Z,10.80
2018-09-22T04:54:30.188Z,10.80
2018-09-22T04:56:58.670Z,10.80
2018-09-22T04:59:27.155Z,10.80
2018-09-22T05:01:55.606Z,10.80
2018-09-22T05:04:24.146Z,10.90
2018-09-22T05:06:52.631Z,10.90
2018-09-22T05:09:21.103Z,10.90
2018-09-22T05:11:49.571Z,10.90
2018-09-22T05:14:18.063Z,10.90
2018-09-22T05:16:46.529Z,10.90
2018-09-22T05:19:15.011Z,10.90
2018-09-22T05:21:43.463Z,11.00
2018-09-22T05:24:11.967Z,11.00
2018-09-22T05:26:40.511Z,10.90
2018-09-22T05:29:09.071Z,10.90
2018-09-22T05:31:37.593Z,11.00
2018-09-22T05:34:06.094Z,11.10
2018-09-22T05:36:34.558Z,11.10
2018-09-22T05:39:03.190Z,11.10
2018-09-22T05:41:31.972Z,11.10
2018-09-22T05:44:00.627Z,11.10
2018-09-22T05:46:29.126Z,11.10
2018-09-22T05:48:57.592Z,11.10
2018-09-22T05:51:26.280Z,11.10
2018-09-22T05:53:54.762Z,11.20
2018-09-22T05:56:23.226Z,11.20
2018-09-22T05:58:51.691Z,11.20
2018-09-22T06:01:20.250Z,11.20
2018-09-22T06:03:48.846Z,11.20
2018-09-22T06:06:17.433Z,11.30
2018-09-22T06:08:45.923Z,11.30
2018-09-22T06:11:14.491Z,11.30
2018-09-22T06:13:43.148Z,11.30
2018-09-22T06:16:11.667Z,11.30
2018-09-22T06:18:40.126Z,11.40
2018-09-22T06:21:08.642Z,11.40
2018-09-22T06:23:37.120Z,11.50
2018-09-22T06:26:05.815Z,11.50
2018-09-22T06:28:34.376Z,11.50
2018-09-22T06:31:04.978Z,11.50
2018-09-22T06:33:33.418Z,11.60
2018-09-22T06:36:01.881Z,11.60
2018-09-22T06:38:30.367Z,11.80
2018-09-22T06:40:58.876Z,11.80
2018-09-22T06:43:27.378Z,11.90
2018-09-22T06:45:56.034Z,11.90
2018-09-22T06:48:24.549Z,11.90
2018-09-22T06:50:53.058Z,12.00
2018-09-22T06:53:21.593Z,12.00
2018-09-22T06:55:50.063Z,12.10
2018-09-22T06:58:18.562Z,12.10
2018-09-22T07:00:47.038Z,12.10
2018-09-22T07:03:15.590Z,12.20
2018-09-22T07:05:44.031Z,12.20
2018-09-22T07:08:12.506Z,12.30
2018-09-22T07:10:42.613Z,12.30
2018-09-22T07:13:11.838Z,12.40
2018-09-22T07:15:40.357Z,12.50
2018-09-22T07:18:08.866Z,12.60
2018-09-22T07:20:38.306Z,12.70
2018-09-22T07:23:12.044Z,12.70
2018-09-22T07:25:40.589Z,12.80
2018-09-22T07:28:09.523Z,12.80
2018-09-22T07:30:38.208Z,13.00
2018-09-22T07:33:07.050Z,13.00
2018-09-22T07:35:35.959Z,13.10
2018-09-22T07:38:05.401Z,13.20
2018-09-22T07:40:34.218Z,13.20
2018-09-22T07:43:03.021Z,13.10
2018-09-22T07:45:31.670Z,13.20
2018-09-22T07:48:00.202Z,13.20
2018-09-22T07:50:31.035Z,13.30
2018-09-22T07:52:59.525Z,13.40
2018-09-22T07:55:28.713Z,13.60
2018-09-22T07:57:57.167Z,13.70
2018-09-22T08:00:25.780Z,13.80
2018-09-22T08:02:54.387Z,13.90
2018-09-22T08:05:22.886Z,14.00
2018-09-22T08:07:51.991Z,14.10
2018-09-22T08:10:20.518Z,14.20
2018-09-22T08:12:49.001Z,14.30
2018-09-22T08:15:17.883Z,14.20
2018-09-22T08:17:46.395Z,14.30
2018-09-22T08:20:14.862Z,14.50
2018-09-22T08:22:43.347Z,14.60
2018-09-22T08:25:11.855Z,14.60
2018-09-22T08:27:40.595Z,14.50
2018-09-22T08:30:09.122Z,14.50
2018-09-22T08:32:37.864Z,14.50
2018-09-22T08:35:07.046Z,14.60
2018-09-22T08:37:36.286Z,14.70
2018-09-22T08:40:05.006Z,14.70
2018-09-22T08:42:33.615Z,14.70
2018-09-22T08:45:02.243Z,14.70
2018-09-22T08:47:31.543Z,14.80
2018-09-22T08:50:00.153Z,15.10
2018-09-22T08:52:28.996Z,15.30
2018-09-22T08:54:57.459Z,15.50
2018-09-22T08:57:25.978Z,15.60
2018-09-22T08:59:54.426Z,15.60
2018-09-22T09:02:22.917Z,15.70
2018-09-22T09:04:51.667Z,15.70
2018-09-22T09:07:20.295Z,15.70
2018-09-22T09:09:48.791Z,15.70
2018-09-22T09:12:18.314Z,15.80
2018-09-22T09:14:46.829Z,15.80
2018-09-22T09:17:15.460Z,15.90
2018-09-22T09:19:43.984Z,15.90
2018-09-22T09:22:12.507Z,15.80
2018-09-22T09:24:40.982Z,15.70
2018-09-22T09:27:09.546Z,15.90
2018-09-22T09:29:37.991Z,15.90
2018-09-22T09:32:06.514Z,15.90
2018-09-22T09:34:35.032Z,16.00
2018-09-22T09:37:03.537Z,16.10
2018-09-22T09:39:32.035Z,16.10
2018-09-22T09:42:00.606Z,16.00
2018-09-22T09:44:29.134Z,15.90
2018-09-22T09:46:57.683Z,15.90
2018-09-22T09:49:29.507Z,15.90
2018-09-22T09:51:58.006Z,15.90
2018-09-22T09:54:26.630Z,15.90
2018-09-22T09:56:55.294Z,15.70
2018-09-22T09:59:23.779Z,15.80
2018-09-22T10:01:52.331Z,15.90
2018-09-22T10:04:20.858Z,15.80
2018-09-22T10:06:49.533Z,15.80
2018-09-22T10:09:18.027Z,15.90
2018-09-22T10:11:46.533Z,16.00
2018-09-22T10:14:15.102Z,16.00
2018-09-22T10:16:43.574Z,16.20
2018-09-22T10:19:12.041Z,16.40
2018-09-22T10:21:40.522Z,16.50
2018-09-22T10:24:09.019Z,16.60
2018-09-22T10:26:37.548Z,16.60
2018-09-22T10:29:06.054Z,16.70
2018-09-22T10:31:34.564Z,16.60
2018-09-22T10:34:03.040Z,16.60
2018-09-22T10:36:33.250Z,16.70
2018-09-22T10:39:01.734Z,16.80
2018-09-22T10:41:30.213Z,16.80
2018-09-22T10:43:58.685Z,16.80
2018-09-22T10:46:27.163Z,16.80
2018-09-22T10:48:55.643Z,16.60
2018-09-22T10:51:24.113Z,16.60
2018-09-22T10:53:52.587Z,16.60
2018-09-22T10:56:21.071Z,16.60
2018-09-22T10:58:49.535Z,16.50
2018-09-22T11:01:18.099Z,16.50
2018-09-22T11:03:47.397Z,16.70
2018-09-22T11:06:16.050Z,16.80
2018-09-22T11:08:44.502Z,16.90
2018-09-22T11:11:12.987Z,16.90
2018-09-22T11:13:41.490Z,16.80
2018-09-22T11:16:10.046Z,16.80
2018-09-22T11:18:38.486Z,16.80
2018-09-22T11:21:06.962Z,17.00
2018-09-22T11:23:35.414Z,16.90
2018-09-22T11:26:03.894Z,16.90
2018-09-22T11:28:32.422Z,16.90
2018-09-22T11:31:00.895Z,16.90
2018-09-22T11:33:29.378Z,17.00
2018-09-22T11:35:57.838Z,17.00
2018-09-22T11:38:26.362Z,17.00
2018-09-22T11:40:54.969Z,17.10
2018-09-22T11:43:23.506Z,16.90
2018-09-22T11:45:51.967Z,16.80
2018-09-22T11:48:20.442Z,16.80
2018-09-22T11:50:48.908Z,16.90
2018-09-22T11:53:17.375Z,17.10
2018-09-22T11:55:45.839Z,17.10
2018-09-22T11:58:14.349Z,17.10
2018-09-22T12:00:42.847Z,17.20
2018-09-22T12:03:11.379Z,17.30
2018-09-22T12:05:40.200Z,17.30
2018-09-22T12:08:08.739Z,17.40
2018-09-22T12:10:37.207Z,17.50
2018-09-22T12:13:05.736Z,17.60
2018-09-22T12:15:34.555Z,17.70
2018-09-22T12:18:03.026Z,17.80
2018-09-22T12:20:31.499Z,17.70
2018-09-22T12:22:59.991Z,17.50
2018-09-22T12:25:28.448Z,17.40
2018-09-22T12:27:57.150Z,17.50
2018-09-22T12:30:25.631Z,17.50
2018-09-22T12:32:54.104Z,17.60
2018-09-22T12:35:22.797Z,17.60
2018-09-22T12:37:51.254Z,17.50
2018-09-22T12:40:19.742Z,17.40
2018-09-22T12:42:48.194Z,17.30
2018-09-22T12:45:16.682Z,17.30
2018-09-22T12:47:45.157Z,17.40
2018-09-22T12:50:13.624Z,17.30
2018-09-22T12:52:42.103Z,17.30
2018-09-22T12:55:10.676Z,17.20
2018-09-22T12:57:39.506Z,17.20
2018-09-22T13:00:08.073Z,17.10
2018-09-22T13:02:36.850Z,17.10
2018-09-22T13:05:05.822Z,17.10
2018-09-22T13:07:34.536Z,17.10
2018-09-22T13:10:03.665Z,17.10
2018-09-22T13:12:32.470Z,17.00
2018-09-22T13:15:01.174Z,16.80
2018-09-22T13:17:29.647Z,16.80
2018-09-22T13:19:58.135Z,16.70
2018-09-22T13:22:28.775Z,16.50
2018-09-22T13:24:58.103Z,16.30
2018-09-22T13:27:27.738Z,16.30
2018-09-22T13:29:58.015Z,16.30
2018-09-22T13:32:27.278Z,16.30
2018-09-22T13:34:56.751Z,16.30
2018-09-22T13:37:28.291Z,16.30
2018-09-22T13:39:59.304Z,16.30
2018-09-22T13:42:28.043Z,16.30
2018-09-22T13:44:56.998Z,16.40
2018-09-22T13:47:26.842Z,16.40
2018-09-22T13:49:57.035Z,16.50
2018-09-22T13:52:27.046Z,16.50
2018-09-22T13:54:56.350Z,16.60
2018-09-22T13:57:26.162Z,16.60
2018-09-22T13:59:56.170Z,16.60
2018-09-22T14:02:24.923Z,16.60
2018-09-22T14:04:54.271Z,16.60
2018-09-22T14:07:23.272Z,16.50
2018-09-22T14:09:52.374Z,16.50
2018-09-22T14:12:23.383Z,16.40
2018-09-22T14:14:52.611Z,16.40
2018-09-22T14:17:21.449Z,16.40
2018-09-22T14:19:50.641Z,16.20
2018-09-22T14:22:21.861Z,16.30
2018-09-22T14:24:51.218Z,16.30
2018-09-22T14:27:20.093Z,16.40
2018-09-22T14:29:49.471Z,16.40
2018-09-22T14:32:18.443Z,16.30
2018-09-22T14:34:48.417Z,16.30
2018-09-22T14:37:17.871Z,16.30
2018-09-22T14:39:48.079Z,16.20
2018-09-22T14:42:17.437Z,16.20
2018-09-22T14:44:46.591Z,16.10
2018-09-22T14:47:16.086Z,15.90
2018-09-22T14:49:46.469Z,15.90
2018-09-22T14:52:17.382Z,15.80
2018-09-22T14:54:46.903Z,15.80
2018-09-22T14:57:15.367Z,15.70
2018-09-22T14:59:46.058Z,15.70
2018-09-22T15:02:16.992Z,15.60
2018-09-22T15:04:46.553Z,15.00
2018-09-22T15:07:18.391Z,14.40
2018-09-22T15:09:48.623Z,14.10
2018-09-22T15:12:17.592Z,13.70
2018-09-22T15:14:46.111Z,13.20
2018-09-22T15:17:14.589Z,12.90
2018-09-22T15:19:43.250Z,12.70
2018-09-22T15:22:11.691Z,12.50
2018-09-22T15:24:40.150Z,12.40
2018-09-22T15:27:08.618Z,12.40
2018-09-22T15:29:37.078Z,12.20
2018-09-22T15:32:05.555Z,12.20
2018-09-22T15:34:34.071Z,12.10
2018-09-22T15:37:02.601Z,12.00
2018-09-22T15:39:31.219Z,12.00
2018-09-22T15:41:59.658Z,12.10
2018-09-22T15:44:28.157Z,12.10
2018-09-22T15:46:56.635Z,12.10
2018-09-22T15:49:25.088Z,12.00
2018-09-22T15:51:53.578Z,12.00
2018-09-22T15:54:22.035Z,11.90
2018-09-22T15:56:50.558Z,12.00
2018-09-22T15:59:19.019Z,12.00
2018-09-22T16:01:47.528Z,11.90
2018-09-22T16:04:15.995Z,11.90
2018-09-22T16:06:44.483Z,11.90
2018-09-22T16:09:12.929Z,11.90
2018-09-22T16:11:41.420Z,11.90
2018-09-22T16:14:09.883Z,11.90
2018-09-22T16:16:38.363Z,11.80
2018-09-22T16:19:06.835Z,11.80
2018-09-22T16:21:35.307Z,11.90
2018-09-22T16:24:03.970Z,11.90
2018-09-22T16:26:32.479Z,12.00
2018-09-22T16:29:00.974Z,11.90
2018-09-22T16:31:29.459Z,11.90
2018-09-22T16:33:57.912Z,11.80
2018-09-22T16:36:26.369Z,11.80
2018-09-22T16:38:54.842Z,11.70
2018-09-22T16:41:23.293Z,11.80
2018-09-22T16:43:51.770Z,11.90
2018-09-22T16:46:20.230Z,11.80
2018-09-22T16:48:48.711Z,11.80
2018-09-22T16:51:17.174Z,11.80
2018-09-22T16:53:45.681Z,11.80
2018-09-22T16:56:14.134Z,11.80
2018-09-22T16:58:42.665Z,11.80
2018-09-22T17:01:11.135Z,11.80
2018-09-22T17:03:40.526Z,11.70
2018-09-22T17:06:09.018Z,11.70
2018-09-22T17:08:38.231Z,11.70
2018-09-22T17:11:06.726Z,11.70
2018-09-22T17:13:35.241Z,11.70
2018-09-22T17:16:04.162Z,11.70
2018-09-22T17:18:33.042Z,11.70
2018-09-22T17:21:01.510Z,11.70
2018-09-22T17:23:30.303Z,11.70
2018-09-22T17:25:58.778Z,11.70
2018-09-22T17:28:27.446Z,11.70
2018-09-22T17:30:56.279Z,11.70
2018-09-22T17:33:24.737Z,11.70
2018-09-22T17:35:53.207Z,11.70
2018-09-22T17:38:21.691Z,11.70
2018-09-22T17:40:50.277Z,11.70
2018-09-22T17:43:18.833Z,11.70
2018-09-22T17:45:47.435Z,11.70
2018-09-22T17:48:15.950Z,11.70
2018-09-22T17:50:44.466Z,11.70
2018-09-22T17:53:12.967Z,11.60
2018-09-22T17:55:41.527Z,11.70
2018-09-22T17:58:10.026Z,11.70
2018-09-22T18:00:38.565Z,11.70
2018-09-22T18:03:07.017Z,11.70
2018-09-22T18:05:35.708Z,11.70
2018-09-22T18:08:04.165Z,11.70
2018-09-22T18:10:32.642Z,11.70
2018-09-22T18:13:01.102Z,11.60
2018-09-22T18:15:29.599Z,11.60
2018-09-22T18:17:58.162Z,11.70
2018-09-22T18:20:26.661Z,11.70
2018-09-22T18:22:55.115Z,11.60
2018-09-22T18:25:23.580Z,11.70
2018-09-22T18:27:52.277Z,11.60
2018-09-22T18:30:20.845Z,11.70
2018-09-22T18:32:50.005Z,11.60
2018-09-22T18:35:18.531Z,11.60
2018-09-22T18:37:47.003Z,11.60
2018-09-22T18:40:15.657Z,11.60
2018-09-22T18:42:44.130Z,11.60
2018-09-22T18:45:12.650Z,11.60
2018-09-22T18:47:41.134Z,11.60
2018-09-22T18:50:09.611Z,11.60
2018-09-22T18:52:38.108Z,11.50
2018-09-22T18:55:06.826Z,11.50
2018-09-22T18:57:35.295Z,11.50
2018-09-22T19:00:03.798Z,11.50
2018-09-22T19:02:32.344Z,11.50
2018-09-22T19:05:00.830Z,11.50
2018-09-22T19:07:29.606Z,11.50
2018-09-22T19:09:58.067Z,11.40
2018-09-22T19:12:26.662Z,11.40
2018-09-22T19:15:03.703Z,11.40
2018-09-22T19:19:39.414Z,11.40
2018-09-22T19:22:11.507Z,11.40
2018-09-22T19:24:53.019Z,11.40
2018-09-22T19:27:25.344Z,11.40
2018-09-22T19:30:29.034Z,11.40
2018-09-22T19:33:02.452Z,11.40
2018-09-22T19:35:38.183Z,11.40
2018-09-22T19:40:12.965Z,11.40
2018-09-22T19:43:48.008Z,11.40
2018-09-22T19:46:19.050Z,11.30
2018-09-22T19:48:56.570Z,11.30
2018-09-22T19:51:27.062Z,11.30
2018-09-22T19:53:57.701Z,11.30
2018-09-22T19:56:26.150Z,11.30
2018-09-22T19:58:54.630Z,11.30
2018-09-22T20:01:23.094Z,11.30
2018-09-22T20:03:51.577Z,11.30
2018-09-22T20:06:20.081Z,11.30
2018-09-22T20:08:48.549Z,11.40
2018-09-22T20:11:17.048Z,11.40
2018-09-22T20:13:46.318Z,11.40
2018-09-22T20:16:14.804Z,11.40
2018-09-22T20:18:43.282Z,11.40
2018-09-22T20:21:11.786Z,11.30
2018-09-22T20:23:40.293Z,11.40
2018-09-22T20:26:08.762Z,11.40
2018-09-22T20:28:37.345Z,11.40
2018-09-22T20:31:05.850Z,11.40
2018-09-22T20:33:34.310Z,11.30
2018-09-22T20:36:02.804Z,11.30
2018-09-22T20:38:31.329Z,11.30
2018-09-22T20:40:59.855Z,11.30
2018-09-22T20:43:28.271Z,11.30
2018-09-22T20:45:56.722Z,11.30
2018-09-22T20:48:25.136Z,11.40
2018-09-22T20:50:53.587Z,11.40
2018-09-22T20:53:22.014Z,11.30
2018-09-22T20:55:50.418Z,11.30
2018-09-22T20:58:18.845Z,11.30
2018-09-22T21:00:47.267Z,11.30
2018-09-22T21:03:15.745Z,11.30
2018-09-22T21:05:44.157Z,11.30
2018-09-22T21:08:12.594Z,11.30
2018-09-22T21:10:40.997Z,11.30
2018-09-22T21:13:09.475Z,11.20
2018-09-22T21:15:37.878Z,11.30
2018-09-22T21:18:06.385Z,11.30
2018-09-22T21:20:34.791Z,11.30
2018-09-22T21:23:03.206Z,11.30
2018-09-22T21:25:31.618Z,11.30
2018-09-22T21:28:00.062Z,11.30
2018-09-22T21:30:28.485Z,11.30
2018-09-22T21:32:56.917Z,11.30
2018-09-22T21:35:25.622Z,11.30
2018-09-22T21:37:54.388Z,11.30
2018-09-22T21:40:22.830Z,11.30
2018-09-22T21:42:51.263Z,11.20
2018-09-22T21:45:19.722Z,11.30
2018-09-22T21:47:48.160Z,11.20
2018-09-22T21:50:16.574Z,11.20
2018-09-22T21:52:45.006Z,11.20
2018-09-22T21:55:13.447Z,11.30
2018-09-22T21:57:41.867Z,11.30
2018-09-22T22:00:10.674Z,11.30
2018-09-22T22:02:39.084Z,11.30
2018-09-22T22:05:07.519Z,11.30
2018-09-22T22:07:35.965Z,11.20
2018-09-22T22:10:04.459Z,11.20
2018-09-22T22:12:32.871Z,11.20
2018-09-22T22:15:01.314Z,11.30
2018-09-22T22:17:29.730Z,11.20
2018-09-22T22:19:58.166Z,11.20
2018-09-22T22:22:26.590Z,11.20
2018-09-22T22:24:55.030Z,11.20
2018-09-22T22:27:23.447Z,11.20
2018-09-22T22:29:51.871Z,11.20
2018-09-22T22:32:20.288Z,11.20
2018-09-22T22:34:48.732Z,11.20
2018-09-22T22:37:17.155Z,11.10
2018-09-22T22:39:45.602Z,11.20
2018-09-22T22:42:14.046Z,11.10
2018-09-22T22:44:42.463Z,11.20
2018-09-22T22:47:11.389Z,11.20
2018-09-22T22:49:39.807Z,11.30
2018-09-22T22:52:08.238Z,11.30
2018-09-22T22:54:36.692Z,11.30
2018-09-22T22:57:05.132Z,11.30
2018-09-22T22:59:33.558Z,11.30
2018-09-22T23:02:02.024Z,11.20
2018-09-22T23:04:30.442Z,11.20
2018-09-22T23:06:58.878Z,11.30
2018-09-22T23:09:27.284Z,11.30
2018-09-22T23:11:55.718Z,11.30
2018-09-22T23:14:24.151Z,11.30
2018-09-22T23:16:52.589Z,11.30
2018-09-22T23:19:20.994Z,11.20
2018-09-22T23:21:49.841Z,11.30
2018-09-22T23:24:18.281Z,11.20
2018-09-22T23:26:46.723Z,11.30
2018-09-22T23:29:15.155Z,11.30
2018-09-22T23:31:43.564Z,11.30
2018-09-22T23:34:12.026Z,11.30
2018-09-22T23:36:40.445Z,11.30
2018-09-22T23:39:10.825Z,11.30
2018-09-22T23:41:39.397Z,11.30
2018-09-22T23:44:08.289Z,11.30
2018-09-22T23:46:36.718Z,11.40
2018-09-22T23:49:05.141Z,11.40
2018-09-22T23:51:33.544Z,11.40
2018-09-22T23:54:01.973Z,11.40
2018-09-22T23:56:30.707Z,11.40
2018-09-22T23:58:59.137Z,11.40
